Latest Weather Observations for Willis Island

IDQ60801

Issued at 7:35 am EST Wednesday 1 October 2014 (issued every 30 minutes, with the page automatically refreshed every 10 minutes)

About weather observations | Map of weather stations | Latest weather observations for QLD | Other Formats
Station Details ID: 200283 Name: WILLIS ISLAND Lat: -16.29 Lon: 149.97 Height: 9.29 m
Data from the previous 72 hours. | See also: Recent months at Willis Island
Date/Time
EST
Temp
°C
App
Temp
°C
Dew
Point
Rel
Hum
%
Delta-T
°C
Wind Press
QNH
hPa
Press
MSL
hPa
Rain
since 9 am
mm
Dir
 
Spd
km/h
Gust
km/h
Spd
kts
Gust
kts
01/07:30am 22.8 18.0 18.5 77 2.7 ESE 41 50 22 27 1017.0 - 0.0
01/07:00am 23.7 19.5 17.2 67 4.0 ESE 35 41 19 22 1016.6 - 0.0
01/06:30am 22.4 18.6 18.2 77 2.6 ESE 35 46 19 25 1016.1 - 0.0
01/06:00am 23.0 18.0 16.1 65 4.2 ESE 37 44 20 24 1015.6 1015.6 0.0
01/05:30am 23.9 20.3 15.2 58 5.2 SE 28 33 15 18 1015.4 - 0.0
01/05:00am 23.8 19.2 14.7 56 5.4 SE 32 37 17 20 1015.2 - 0.0
01/04:30am 23.8 19.5 15.3 59 5.1 SSE 32 37 17 20 1015.0 - 0.0
01/04:00am 23.7 20.6 14.6 56 5.4 SE 24 30 13 16 1014.7 - 0.0
01/03:30am 23.7 19.9 14.8 57 5.3 SE 28 33 15 18 1014.7 - 0.0
01/03:00am 23.7 19.6 14.8 57 5.3 SE 30 35 16 19 1014.7 1014.7 0.0
01/02:30am 23.5 19.7 15.7 61 4.7 SE 30 35 16 19 1014.8 - 0.0
01/02:00am 23.5 19.5 16.1 63 4.5 SE 32 37 17 20 1015.1 - 0.0
01/01:30am 23.5 19.7 16.8 66 4.1 SE 32 39 17 21 1015.3 - 0.0
01/01:00am 23.6 21.0 15.8 61 4.7 SE 24 30 13 16 1015.5 - 0.0
01/12:30am 23.6 20.4 16.4 64 4.4 SE 28 32 15 17 1016.1 - 0.0
01/12:00am 23.7 20.1 17.2 67 4.0 ESE 32 35 17 19 1016.4 1016.4 0.0
 
Date/Time
EST
Temp
°C
App
Temp
°C
Dew
Point
Rel
Hum
%
Delta-T
°C
Wind Press
QNH
hPa
Press
MSL
hPa
Rain
since 9 am
mm
Dir
 
Spd
km/h
Gust
km/h
Spd
kts
Gust
kts
30/11:30pm 23.6 20.6 16.7 65 4.2 ESE 28 32 15 17 1016.5 - 0.0
30/11:00pm 23.4 20.3 16.5 65 4.2 ESE 28 33 15 18 1016.9 - 0.0
30/10:30pm 22.8 20.3 17.1 70 3.5 E 26 35 14 19 1017.1 - 0.0
30/10:00pm 23.8 20.9 16.0 61 4.7 ESE 26 30 14 16 1017.1 - 0.0
30/09:30pm 23.6 21.1 15.2 59 5.0 SE 22 28 12 15 1017.0 - 0.0
30/09:00pm 23.5 19.7 15.7 61 4.7 ESE 30 35 16 19 1017.0 1017.0 0.0
30/08:30pm 23.5 20.2 16.1 63 4.5 ESE 28 33 15 18 1016.9 - 0.0
30/08:00pm 23.5 19.8 15.9 62 4.6 ESE 30 37 16 20 1016.8 - 0.0
30/07:30pm 23.6 19.9 16.0 62 4.6 ESE 30 35 16 19 1016.5 - 0.0
30/07:00pm 23.6 20.1 16.4 64 4.4 ESE 30 35 16 19 1016.5 - 0.0
30/06:30pm 23.7 19.9 16.7 65 4.3 ESE 32 37 17 20 1016.1 - 0.0
30/06:00pm 23.9 19.8 16.4 63 4.6 ESE 33 39 18 21 1015.8 1015.8 0.0
30/05:30pm 23.9 19.7 16.2 62 4.7 ESE 33 41 18 22 1015.3 - 0.0
30/05:00pm 24.2 20.2 16.7 63 4.6 SE 33 39 18 21 1015.0 - 0.0
30/04:30pm 24.1 19.5 16.2 61 4.8 ESE 35 41 19 22 1014.8 - 0.0
30/04:00pm 24.6 21.4 17.2 63 4.6 SE 30 37 16 20 1014.4 - 0.0
30/03:30pm 25.1 22.0 16.5 59 5.3 SE 28 35 15 19 1014.2 - 0.0
30/03:00pm 25.0 21.3 16.9 60 5.0 SE 32 35 17 19 1014.2 1014.2 0.0
30/02:30pm 24.5 21.4 17.6 65 4.3 SE 30 35 16 19 1014.4 - 0.0
30/02:00pm 26.0 22.9 17.5 59 5.3 SE 30 35 16 19 1014.7 - 0.0
30/01:30pm 26.1 22.7 17.7 60 5.3 SE 32 35 17 19 1014.9 - 0.0
30/01:00pm 25.6 22.0 17.6 61 5.0 SE 33 39 18 21 1015.2 - 0.0
30/12:30pm 26.2 22.7 18.0 60 5.2 SE 33 39 18 21 1015.6 - 0.0
30/12:00pm 26.6 22.0 14.6 47 7.2 ESE 32 37 17 20 1015.9 1015.9 0.0
30/11:30am 26.1 22.1 15.2 51 6.6 E 30 35 16 19 1016.5 - 0.0
30/11:00am 26.1 22.0 15.9 53 6.2 ESE 32 37 17 20 1016.9 - 0.0
30/10:30am 26.2 21.7 14.9 49 6.8 ESE 32 39 17 21 1017.4 - 0.0
30/10:00am 26.1 23.6 16.1 54 6.1 SE 24 33 13 18 1017.5 - 0.0
30/09:30am 24.3 22.8 16.8 63 4.6 SE 20 26 11 14 1018.0 - 0.0
30/09:00am 24.6 20.8 15.7 57 5.4 SE 30 35 16 19 1018.0 1018.0 0.0
30/08:30am 23.5 20.5 15.9 62 4.6 ESE 26 30 14 16 1017.9 - 0.0
30/08:00am 23.3 18.6 14.9 59 5.0 ESE 33 39 18 21 1017.9 - 0.0
30/07:30am 22.2 16.8 18.4 79 2.4 ESE 44 54 24 29 1017.7 - 0.0
30/07:00am 22.3 15.4 17.6 75 2.9 ESE 50 56 27 30 1017.2 - 0.0
30/06:30am 23.1 17.1 16.5 66 4.0 SE 43 50 23 27 1016.8 - 0.0
30/06:00am 23.6 18.5 14.8 57 5.2 ESE 35 41 19 22 1016.2 1016.2 0.0
30/05:30am 23.6 18.4 13.4 52 5.9 ESE 33 39 18 21 1015.9 - 0.0
30/05:00am 23.5 17.7 13.9 55 5.6 ESE 37 44 20 24 1015.4 - 0.0
30/04:56am 23.6 17.1 13.0 51 6.1 ESE 39 44 21 24 1015.4 - 0.0
30/04:30am 22.7 20.6 16.1 66 4.0 SE 22 26 12 14 1015.4 - 0.0
30/04:00am 21.2 22.2 17.8 81 2.1 E 9 13 5 7 1015.4 - 0.0
30/03:30am 20.8 20.9 18.4 86 1.5 E 15 20 8 11 1015.4 - 0.0
30/03:00am 21.7 20.9 18.5 82 2.0 SSE 20 26 11 14 1015.5 1015.5 0.0
30/02:30am 21.5 21.2 17.4 77 2.5 ENE 15 19 8 10 1015.7 - 0.0
30/02:00am 21.2 19.8 17.1 77 2.5 ENE 20 24 11 13 1016.0 - 0.0
30/01:30am 21.4 18.1 18.0 81 2.1 E 32 39 17 21 1016.2 - 0.0
30/01:00am 22.1 16.8 18.6 80 2.2 E 44 52 24 28 1016.3 - 0.0
30/12:49am 23.3 19.8 16.4 65 4.2 ESE 30 50 16 27 1016.3 - 0.0
30/12:30am 23.7 20.3 12.5 49 6.4 SE 22 28 12 15 1016.4 - 0.0
30/12:00am 23.5 19.7 12.5 50 6.3 SE 24 28 13 15 1016.7 1016.7 0.0
 
Date/Time
EST
Temp
°C
App
Temp
°C
Dew
Point
Rel
Hum
%
Delta-T
°C
Wind Press
QNH
hPa
Press
MSL
hPa
Rain
since 9 am
mm
Dir
 
Spd
km/h
Gust
km/h
Spd
kts
Gust
kts
29/11:30pm 23.5 19.5 13.1 52 6.0 ESE 26 32 14 17 1016.8 - 0.0
29/11:00pm 23.6 18.9 14.2 55 5.5 SE 32 37 17 20 1016.9 - 0.0
29/10:30pm 23.7 18.8 15.2 59 5.1 SE 35 43 19 23 1017.1 - 0.0
29/10:00pm 23.5 19.0 15.3 60 4.9 SE 33 41 18 22 1017.1 - 0.0
29/09:30pm 23.5 18.6 15.3 60 4.9 SE 35 43 19 23 1017.0 - 0.0
29/09:00pm 23.5 18.4 15.7 61 4.7 SE 37 44 20 24 1016.9 1016.9 0.0
29/08:30pm 23.5 18.1 16.1 63 4.5 SE 39 44 21 24 1016.5 - 0.0
29/08:00pm 23.6 18.4 16.6 65 4.3 SE 39 44 21 24 1016.2 - 0.0
29/07:30pm 23.7 19.1 16.1 62 4.6 SE 35 41 19 22 1015.8 - 0.0
29/07:00pm 23.7 18.6 15.9 61 4.7 SE 37 44 20 24 1015.6 - 0.0
29/06:30pm 23.7 18.9 16.7 65 4.3 SE 37 44 20 24 1015.1 - 0.0
29/06:00pm 24.0 19.3 15.9 60 4.9 SE 35 43 19 23 1014.9 1014.9 0.0
29/05:30pm 24.1 19.6 15.5 58 5.2 ESE 33 39 18 21 1014.6 - 0.0
29/05:00pm 24.4 18.8 14.4 53 5.9 SE 37 44 20 24 1014.4 - 0.0
29/04:30pm 24.7 19.6 14.8 54 5.9 SE 35 41 19 22 1014.2 - 0.0
29/04:00pm 25.0 19.8 15.6 56 5.7 ESE 37 43 20 23 1014.3 - 0.0
29/03:30pm 25.2 19.9 15.4 54 5.9 ESE 37 43 20 23 1014.2 - 0.0
29/03:00pm 25.3 19.9 15.0 53 6.2 ESE 37 43 20 23 1014.3 1014.3 0.0
29/02:30pm 25.5 20.1 16.0 55 5.8 ESE 39 44 21 24 1014.4 - 0.0
29/02:00pm 25.9 21.1 15.7 53 6.2 ESE 35 41 19 22 1014.6 - 0.0
29/01:30pm 26.1 21.1 16.0 53 6.2 ESE 37 43 20 23 1014.8 - 0.0
29/01:00pm 25.9 21.2 16.9 57 5.6 ESE 37 43 20 23 1014.9 - 0.0
29/12:30pm 26.2 20.9 15.3 51 6.6 ESE 37 43 20 23 1015.5 - 0.0
29/12:00pm 26.1 20.9 15.6 52 6.4 ESE 37 43 20 23 1015.8 1015.8 0.0
29/11:30am 25.8 20.2 15.6 53 6.2 E 39 46 21 25 1016.3 - 0.0
29/11:00am 26.2 20.8 17.0 57 5.7 E 41 46 22 25 1016.6 - 0.0
29/10:30am 25.6 20.0 16.5 57 5.6 E 41 50 22 27 1016.7 - 0.0
29/10:00am 25.4 20.0 15.9 55 5.8 ESE 39 48 21 26 1016.9 - 0.0
29/09:30am 24.9 19.6 17.3 62 4.7 ESE 41 48 22 26 1016.9 - 0.0
29/09:00am 24.3 18.4 16.8 63 4.6 ESE 43 52 23 28 1016.8 1016.8 0.0
29/08:30am 24.1 18.0 16.6 63 4.6 ESE 44 54 24 29 1016.8 - 0.0
29/08:00am 24.8 19.0 17.4 63 4.6 ESE 44 54 24 29 1016.6 - 0.0
29/07:30am 24.2 17.9 16.1 60 4.9 ESE 44 54 24 29 1016.2 - 0.0
29/07:00am 24.2 18.0 16.3 61 4.8 ESE 44 52 24 28 1015.8 - 0.0
29/06:30am 23.7 18.2 16.7 65 4.3 ESE 41 50 22 27 1015.5 - 0.0
29/06:00am 23.3 16.9 15.3 60 4.8 SE 43 52 23 28 1015.1 1015.1 0.0
29/05:30am 23.4 16.4 15.4 60 4.8 ESE 46 52 25 28 1014.6 - 0.0
29/05:00am 23.5 16.3 14.7 57 5.2 SE 46 54 25 29 1014.4 - 0.0
29/04:30am 23.4 16.7 15.0 59 5.0 SE 44 52 24 28 1014.2 - 0.0
29/04:00am 23.3 16.6 14.5 57 5.2 SE 43 52 23 28 1014.1 - 0.0
29/03:30am 23.7 16.9 15.9 61 4.7 ESE 46 56 25 30 1014.1 - 0.0
29/03:00am 23.5 17.4 15.3 60 4.9 SE 41 48 22 26 1014.4 1014.4 0.0
29/02:30am 23.5 16.8 14.7 57 5.2 SE 43 50 23 27 1014.7 - 0.0
29/02:00am 23.5 16.6 14.5 57 5.3 ESE 44 50 24 27 1015.0 - 0.0
29/01:30am 23.7 17.8 16.7 65 4.3 ESE 43 50 23 27 1015.3 - 0.0
29/01:00am 23.6 17.9 16.2 63 4.5 ESE 41 50 22 27 1015.7 - 0.0
29/12:30am 23.9 18.3 16.4 63 4.6 ESE 41 50 22 27 1016.0 - 0.0
29/12:00am 23.9 18.0 15.8 60 4.9 ESE 41 48 22 26 1016.2 1016.2 0.0
 
Date/Time
EST
Temp
°C
App
Temp
°C
Dew
Point
Rel
Hum
%
Delta-T
°C
Wind Press
QNH
hPa
Press
MSL
hPa
Rain
since 9 am
mm
Dir
 
Spd
km/h
Gust
km/h
Spd
kts
Gust
kts
28/11:30pm 23.9 18.4 15.8 60 4.9 ESE 39 46 21 25 1016.5 - 0.0
28/11:00pm 24.0 17.7 15.7 59 5.0 SE 43 46 23 25 1016.6 - 0.0
28/10:30pm 24.0 18.6 16.1 61 4.8 ESE 39 48 21 26 1016.7 - 0.0
28/10:00pm 24.1 18.5 16.4 62 4.7 ESE 41 46 22 25 1016.7 - 0.0
28/09:30pm 24.1 18.2 15.6 59 5.1 ESE 41 48 22 26 1016.5 - 0.0
28/09:00pm 24.2 19.3 17.3 65 4.3 ESE 39 48 21 26 1016.3 1016.3 0.0
28/08:30pm 24.2 18.4 16.9 63 4.5 ESE 43 48 23 26 1016.1 - 0.0
28/08:00pm 24.3 17.8 15.1 56 5.5 ESE 43 50 23 27 1015.8 - 0.0
28/07:30pm 24.3 18.0 15.7 58 5.2 ESE 43 46 23 25 1015.7 - 0.0
28/07:00pm 24.2 18.4 16.0 60 5.0 SE 41 48 22 26 1015.5 - 0.0
28/06:30pm 24.3 19.1 16.6 62 4.7 SE 39 44 21 24 1015.2 - 0.0
28/06:00pm 24.3 17.9 15.5 58 5.3 SE 43 52 23 28 1014.8 1014.8 0.0
28/05:30pm 24.5 19.1 16.1 59 5.1 SE 39 44 21 24 1014.5 - 0.0
28/05:00pm 24.6 19.6 16.2 59 5.1 SE 37 43 20 23 1014.3 - 0.0
28/04:30pm 24.9 20.1 16.6 60 5.1 SE 37 43 20 23 1014.0 - 0.0
28/04:00pm 25.5 21.2 16.8 58 5.4 SE 35 41 19 22 1014.1 - 0.0
28/03:30pm 25.8 21.5 16.9 58 5.5 SE 35 44 19 24 1014.1 - 0.0
28/03:00pm 25.8 20.8 16.2 55 5.9 SE 37 43 20 23 1014.2 1014.2 0.0
28/02:30pm 26.3 22.0 16.0 53 6.3 SE 33 39 18 21 1014.4 - 0.0
28/02:00pm 26.5 21.7 15.5 50 6.7 SE 35 41 19 22 1014.8 - 0.0
28/01:30pm 26.6 22.0 16.2 52 6.4 SE 35 41 19 22 1015.0 - 0.0
28/01:00pm 27.0 22.2 15.5 49 7.0 SE 35 39 19 21 1015.3 - 0.0
28/12:30pm 26.7 22.1 15.1 49 7.0 SE 33 39 18 21 1015.7 - 0.0
28/12:00pm 26.8 21.6 14.6 47 7.3 SE 35 41 19 22 1016.2 - 0.0
28/11:30am 27.4 23.1 16.8 52 6.6 SE 35 44 19 24 1016.6 - 0.0
28/11:00am 26.7 21.2 14.7 47 7.2 SE 37 44 20 24 1017.2 - 0.0
28/10:30am 26.5 21.7 15.7 51 6.6 SE 35 44 19 24 1017.3 - 0.0
28/10:00am 26.3 20.3 14.4 48 7.1 SE 39 44 21 24 1017.3 - 0.0
28/09:30am 26.5 20.8 14.2 46 7.3 SE 37 44 20 24 1017.4 - 0.0
28/09:00am 25.9 19.7 13.9 47 7.1 SE 39 46 21 25 1017.4 1017.4 0.0
28/08:30am 25.9 20.2 14.3 48 6.9 SE 37 44 20 24 1017.3 - 0.0
28/08:00am 25.3 19.7 14.5 51 6.4 SE 37 44 20 24 1017.2 - 0.0

Other Formats:

Comma delimited format used in spreadsheet applications
http://www.bom.gov.au/fwo/IDQ60801/IDQ60801.94299.axf

JavaScript Object Notation format (JSON) in row-major order
http://www.bom.gov.au/fwo/IDQ60801/IDQ60801.94299.json